Time;durP1;ratioP1;P1;durP2;ratioP2;P2;SDS_P1;SDS_P2;PMS_P1;PMS_P2;Temp;Humidity;BMP_temperature;BMP_pressure;BME280_temperature;BME280_humidity;BME280_pressure;Samples;Min_cycle;Max_cycle;Signal;HPM_P1;HPM_P2
2022/04/25 00:01:20;;;;;;;7.35;6.55;;;;;;;7.66;71.19;97643.28;4116005;28;20254;-56
2022/04/25 00:03:22;;;;;;;12.02;6.82;;;;;;;7.63;70.82;97643.81;4091315;29;20215;-56
2022/04/25 00:05:24;;;;;;;12.48;7.13;;;;;;;7.61;70.60;97645.97;4103577;28;20325;-56
2022/04/25 00:07:25;;;;;;;7.32;6.72;;;;;;;7.62;70.75;97644.91;4078563;29;20267;-56
2022/04/25 00:09:27;;;;;;;7.13;6.50;;;;;;;7.65;70.63;97645.22;4103810;28;20262;-55
2022/04/25 00:11:29;;;;;;;7.38;6.78;;;;;;;7.69;70.66;97659.94;4089419;28;20302;-55
2022/04/25 00:13:31;;;;;;;6.18;5.70;;;;;;;7.65;71.09;97658.81;4101818;28;20760;-55
2022/04/25 00:15:32;;;;;;;7.82;7.13;;;;;;;7.64;70.57;97657.19;4090923;29;20258;-55
2022/04/25 00:17:34;;;;;;;5.15;4.80;;;;;;;7.61;70.08;97657.66;4092572;29;20231;-55
2022/04/25 00:19:39;;;;;;;7.22;6.60;;;;;;;7.59;70.17;97659.84;4105259;28;20625;-55
2022/04/25 00:21:40;;;;;;;7.47;6.82;;;;;;;7.61;70.39;97656.88;4092890;29;20699;-56
2022/04/25 00:23:43;;;;;;;5.95;5.45;;;;;;;7.54;70.65;97658.91;4103180;28;20207;-56
2022/04/25 00:25:44;;;;;;;6.85;6.25;;;;;;;7.49;70.00;97658.88;4094280;29;20243;-56
2022/04/25 00:27:46;;;;;;;8.50;7.80;;;;;;;7.48;70.19;97659.94;4094199;29;20250;-57
2022/04/25 00:29:48;;;;;;;5.85;5.45;;;;;;;7.43;70.48;97657.97;4100552;28;20242;-56
2022/04/25 00:31:49;;;;;;;6.45;5.85;;;;;;;7.35;70.11;97652.94;4086391;29;20293;-57
2022/04/25 00:33:51;;;;;;;6.55;6.05;;;;;;;7.30;70.10;97654.78;4100940;28;20211;-56
2022/04/25 00:35:53;;;;;;;5.53;5.13;;;;;;;7.26;70.32;97659.06;4100527;28;20230;-56
2022/04/25 00:37:54;;;;;;;6.38;5.85;;;;;;;7.25;70.46;97657.44;4090078;29;20207;-57
2022/04/25 00:39:56;;;;;;;5.15;4.75;;;;;;;7.24;70.85;97658.50;4092946;28;20329;-57
2022/04/25 00:41:58;;;;;;;5.53;5.13;;;;;;;7.21;70.79;97661.75;4092383;28;20574;-57
2022/04/25 00:43:59;;;;;;;6.07;5.47;;;;;;;7.20;70.99;97660.06;4096342;29;20215;-57
2022/04/25 00:46:01;;;;;;;7.20;6.50;;;;;;;7.22;71.02;97663.38;4094011;28;20804;-56
2022/04/25 00:48:04;;;;;;;7.95;5.22;;;;;;;7.20;70.56;97655.47;4108309;28;20246;-56
2022/04/25 00:50:07;;;;;;;6.53;6.03;;;;;;;7.16;70.87;97654.31;4106074;28;20211;-57
2022/04/25 00:52:08;;;;;;;6.47;5.97;;;;;;;7.17;70.84;97649.69;4097393;29;20203;-57
2022/04/25 00:54:10;;;;;;;7.43;6.85;;;;;;;7.16;70.97;97648.06;4092671;29;20698;-57
2022/04/25 00:56:14;;;;;;;7.10;6.50;;;;;;;7.15;70.77;97643.69;4108016;28;20252;-56
2022/04/25 00:58:16;;;;;;;6.40;5.90;;;;;;;7.15;71.21;97646.41;4089712;29;20211;-56
2022/04/25 01:00:18;;;;;;;6.82;6.30;;;;;;;7.16;70.81;97648.06;4100415;28;20234;-56
2022/04/25 01:02:19;;;;;;;6.60;6.10;;;;;;;7.14;70.79;97651.00;4117928;28;20241;-57
2022/04/25 01:04:21;;;;;;;6.90;6.28;;;;;;;7.14;70.85;97650.19;4120755;28;20224;-56
2022/04/25 01:06:23;;;;;;;7.65;7.03;;;;;;;7.09;71.04;97650.13;4091199;29;20729;-56
2022/04/25 01:08:26;;;;;;;6.07;5.47;;;;;;;7.07;70.94;97654.97;4107462;28;20226;-57
2022/04/25 01:10:28;;;;;;;6.53;5.93;;;;;;;7.05;71.15;97651.69;4105994;28;20222;-58
2022/04/25 01:12:29;;;;;;;6.63;6.00;;;;;;;7.05;70.53;97646.25;4091554;28;20215;-55
2022/04/25 01:14:31;;;;;;;6.88;6.07;;;;;;;7.04;71.21;97650.88;4095714;29;20235;-57
2022/04/25 01:16:34;;;;;;;5.90;5.40;;;;;;;6.96;70.68;97637.69;4105017;28;20261;-56
2022/04/25 01:18:36;;;;;;;6.90;6.30;;;;;;;6.93;71.13;97637.34;4105581;28;20210;-58
2022/04/25 01:20:37;;;;;;;8.00;7.30;;;;;;;6.89;71.78;97641.66;4090529;28;20214;-58
2022/04/25 01:22:49;;;;;;;5.97;5.55;;;;;;;6.62;72.64;97643.38;4090936;29;20223;-57
2022/04/25 01:27:18;;;;;;;7.93;7.10;;;;;;;6.74;71.35;97638.66;4089036;29;20212;-59
2022/04/25 01:29:20;;;;;;;6.95;6.45;;;;;;;6.74;71.63;97644.94;4090795;29;20232;-57
2022/04/25 01:31:21;;;;;;;8.18;7.43;;;;;;;6.74;71.64;97639.50;4121527;28;20997;-56
2022/04/25 01:33:23;;;;;;;6.82;6.22;;;;;;;6.74;71.45;97630.53;4090163;29;20310;-56
2022/04/25 01:35:25;;;;;;;9.80;6.53;;;;;;;6.75;71.84;97645.78;4090128;29;20231;-57
2022/04/25 01:37:26;;;;;;;5.60;4.97;;;;;;;6.74;71.61;97644.94;4120258;28;20210;-57
2022/04/25 01:39:28;;;;;;;6.07;5.60;;;;;;;6.75;71.56;97652.03;4120776;28;20827;-56
2022/04/25 01:41:31;;;;;;;6.30;5.70;;;;;;;6.79;71.50;97657.78;4091164;29;20764;-57
2022/04/25 01:43:36;;;;;;;6.97;6.28;;;;;;;6.74;71.74;97652.25;4104653;28;20211;-57
2022/04/25 01:45:40;;;;;;;6.55;6.00;;;;;;;6.74;71.85;97644.94;4088832;29;20342;-57
2022/04/25 01:47:44;;;;;;;7.15;6.55;;;;;;;6.75;71.62;97645.78;4089260;29;20245;-56
2022/04/25 01:49:46;;;;;;;6.18;5.65;;;;;;;6.75;71.31;97652.03;4106390;28;20231;-56
2022/04/25 01:51:47;;;;;;;7.95;5.82;;;;;;;6.76;71.66;97658.31;4104555;28;20215;-58
2022/04/25 01:53:49;;;;;;;7.53;6.93;;;;;;;6.72;71.71;97657.13;4089735;29;20718;-55
2022/04/25 01:55:51;;;;;;;6.75;6.13;;;;;;;6.61;71.91;97649.88;4117785;28;20226;-57
2022/04/25 01:57:52;;;;;;;7.55;6.88;;;;;;;6.44;72.66;97646.31;4092187;28;20207;-57
2022/04/25 01:59:54;;;;;;;9.02;8.23;;;;;;;6.48;72.68;97644.78;4086617;29;20232;-57
2022/04/25 02:01:56;;;;;;;10.43;7.13;;;;;;;6.43;72.48;97636.53;4089240;29;20323;-56
2022/04/25 02:03:58;;;;;;;7.05;6.45;;;;;;;6.42;72.45;97640.31;4102033;28;20597;-56
2022/04/25 02:06:03;;;;;;;7.35;6.75;;;;;;;6.43;72.92;97641.97;4088553;28;20266;-58
2022/04/25 02:08:05;;;;;;;8.05;7.25;;;;;;;6.41;72.89;97634.06;4086930;29;20259;-57
2022/04/25 02:10:07;;;;;;;7.75;7.15;;;;;;;6.47;72.23;97637.66;4091030;29;20674;-58
2022/04/25 02:12:09;;;;;;;7.15;6.38;;;;;;;6.46;72.41;97641.47;4088987;29;20211;-57
2022/04/25 02:14:11;;;;;;;7.03;6.43;;;;;;;6.51;71.96;97644.28;4089177;28;20231;-63
2022/04/25 02:16:13;;;;;;;6.85;6.25;;;;;;;6.52;71.93;97648.63;4102371;28;20231;-57
2022/04/25 02:18:16;;;;;;;7.90;7.15;;;;;;;6.58;72.28;97653.09;4087675;29;21021;-58
2022/04/25 02:20:17;;;;;;;6.90;6.40;;;;;;;6.60;71.64;97653.66;4092862;29;20788;-57
2022/04/25 02:22:19;;;;;;;7.20;6.68;;;;;;;6.61;71.57;97648.00;4098076;28;20513;-58
2022/04/25 02:24:21;;;;;;;6.18;5.57;;;;;;;6.67;71.14;97659.75;4092052;29;20251;-57
2022/04/25 02:26:23;;;;;;;6.80;5.82;;;;;;;6.63;71.46;97654.00;4093532;29;20266;-58
2022/04/25 02:28:25;;;;;;;6.22;5.70;;;;;;;6.66;71.48;97660.84;4089942;29;20247;-57
2022/04/25 02:30:26;;;;;;;5.90;5.43;;;;;;;6.68;71.38;97666.88;4090188;29;20218;-56
2022/04/25 02:32:28;;;;;;;6.50;6.00;;;;;;;6.69;71.41;97658.44;4102847;28;20215;-57
2022/04/25 02:34:31;;;;;;;6.32;5.82;;;;;;;6.69;71.26;97657.63;4094618;29;20216;-56
2022/04/25 02:36:35;;;;;;;5.90;5.40;;;;;;;6.67;70.88;97649.72;4102157;28;20262;-56
2022/04/25 02:38:37;;;;;;;5.28;4.85;;;;;;;6.67;71.09;97654.31;4081669;28;169062;-57
2022/04/25 02:40:39;;;;;;;6.05;5.57;;;;;;;6.64;70.97;97649.41;4103035;28;20265;-56
2022/04/25 02:42:41;;;;;;;6.10;5.50;;;;;;;6.61;71.55;97649.88;4090390;29;20236;-57
2022/04/25 02:44:43;;;;;;;5.63;5.15;;;;;;;6.55;71.50;97646.25;4092067;29;20209;-56
2022/04/25 02:46:48;;;;;;;6.50;5.82;;;;;;;6.55;71.84;97640.00;4103864;28;20231;-56
2022/04/25 02:48:50;;;;;;;6.07;5.50;;;;;;;6.48;72.36;97640.16;4103548;28;20733;-57
2022/04/25 02:50:51;;;;;;;6.82;6.28;;;;;;;6.43;72.44;97650.13;4096003;29;20211;-57
2022/04/25 02:52:54;;;;;;;7.30;6.72;;;;;;;6.46;72.53;97653.16;4090289;29;20216;-58
2022/04/25 02:54:55;;;;;;;5.97;5.50;;;;;;;6.47;72.26;97648.53;4089259;29;20687;-58
2022/04/25 02:56:57;;;;;;;6.90;6.32;;;;;;;6.50;71.44;97658.94;4105286;28;20234;-57
2022/04/25 02:58:59;;;;;;;6.95;6.35;;;;;;;6.54;71.78;97654.63;4094716;28;20223;-57
2022/04/25 03:01:04;;;;;;;9.75;6.45;;;;;;;6.60;71.77;97651.78;4089371;29;20298;-57
2022/04/25 03:03:06;;;;;;;5.95;5.55;;;;;;;6.55;71.68;97648.16;4089604;29;20203;-58
2022/04/25 03:05:08;;;;;;;5.55;5.05;;;;;;;6.54;71.44;97649.19;4091085;29;20213;-58
2022/04/25 03:07:09;;;;;;;6.57;6.07;;;;;;;6.51;71.39;97655.16;4095299;29;20292;-57
2022/04/25 03:09:11;;;;;;;6.25;5.72;;;;;;;6.53;71.27;97653.00;4093229;28;20251;-56
2022/04/25 03:11:13;;;;;;;5.28;4.78;;;;;;;6.52;71.33;97656.78;4121524;28;20245;-57
2022/04/25 03:13:16;;;;;;;4.85;4.50;;;;;;;6.51;70.98;97657.88;4095597;29;20226;-58
2022/04/25 03:15:17;;;;;;;6.00;5.50;;;;;;;6.51;71.54;97666.84;4087137;29;20631;-56
2022/04/25 03:17:19;;;;;;;4.70;4.40;;;;;;;6.52;71.38;97667.66;4103708;28;20655;-57
2022/04/25 03:19:20;;;;;;;5.28;4.82;;;;;;;6.46;71.64;97664.03;4095880;29;20250;-57
2022/04/25 03:21:22;;;;;;;5.85;5.45;;;;;;;6.46;70.96;97658.59;4104332;28;20246;-58
2022/04/25 03:23:25;;;;;;;6.20;5.70;;;;;;;6.49;71.36;97662.72;4105864;28;20245;-57
2022/04/25 03:25:27;;;;;;;6.63;5.95;;;;;;;6.50;70.85;97658.94;4091422;29;20320;-57
2022/04/25 03:27:28;;;;;;;6.25;5.75;;;;;;;6.41;71.70;97649.53;4104670;28;20302;-57
2022/04/25 03:29:30;;;;;;;6.55;5.95;;;;;;;6.57;71.52;97651.44;4094773;29;20223;-56
2022/04/25 03:31:32;;;;;;;6.82;6.40;;;;;;;6.55;71.39;97646.25;4089560;29;20290;-55
2022/04/25 03:33:36;;;;;;;7.28;6.78;;;;;;;6.28;72.72;97644.41;4102516;28;20280;-57
2022/04/25 03:35:45;;;;;;;5.88;5.45;;;;;;;6.28;72.64;97650.66;4101615;28;20223;-57
2022/04/25 03:37:49;;;;;;;6.65;6.15;;;;;;;6.26;72.59;97652.81;4101982;28;20776;-57
2022/04/25 03:39:50;;;;;;;6.93;6.35;;;;;;;6.29;72.31;97656.94;4089050;29;20211;-56
2022/04/25 03:41:53;;;;;;;6.38;5.88;;;;;;;6.32;72.18;97667.28;4119574;28;20217;-58
2022/04/25 03:43:54;;;;;;;5.28;4.78;;;;;;;6.35;72.22;97666.81;4094757;29;20590;-56
2022/04/25 03:45:56;;;;;;;6.30;5.75;;;;;;;6.37;72.18;97664.69;4089760;29;20223;-57
2022/04/25 03:47:57;;;;;;;6.30;5.72;;;;;;;6.39;72.17;97673.41;4091261;29;20208;-57
2022/04/25 03:49:59;;;;;;;8.05;6.45;;;;;;;6.38;72.01;97667.16;4094819;29;20235;-56
2022/04/25 03:52:01;;;;;;;7.15;6.55;;;;;;;6.33;72.30;97675.22;4095361;29;20206;-57
2022/04/25 03:54:03;;;;;;;6.47;5.88;;;;;;;6.35;72.42;97661.38;4086268;29;20294;-56
2022/04/25 03:58:25;;;;;;;6.28;5.72;;;;;;;6.34;72.88;97654.28;4086715;28;20212;-57
2022/04/25 04:00:27;;;;;;;8.40;5.95;;;;;;;6.32;72.80;97656.44;4101544;28;20318;-58
2022/04/25 04:02:28;;;;;;;6.90;6.22;;;;;;;6.34;72.61;97668.69;4087803;28;21185;-57
2022/04/25 04:04:30;;;;;;;7.70;7.00;;;;;;;6.39;72.08;97667.97;4084626;29;20207;-56
2022/04/25 04:06:33;;;;;;;7.38;6.75;;;;;;;6.43;72.49;97658.28;4100996;28;20637;-56
2022/04/25 04:08:35;;;;;;;7.07;6.57;;;;;;;6.45;72.68;97669.72;4119710;28;20210;-57
2022/04/25 04:10:36;;;;;;;6.15;5.65;;;;;;;6.41;72.49;97660.38;4093930;29;20229;-56
2022/04/25 04:12:38;;;;;;;5.93;5.38;;;;;;;6.47;72.55;97664.84;4093961;29;20203;-57
2022/04/25 04:14:40;;;;;;;6.70;6.20;;;;;;;6.46;72.86;97668.63;4086874;29;20243;-56
2022/04/25 04:16:42;;;;;;;7.40;6.80;;;;;;;6.38;73.63;97664.44;4087490;29;21185;-57
2022/04/25 04:18:44;;;;;;;6.07;5.57;;;;;;;6.35;73.32;97662.19;4103818;28;20251;-57
2022/04/25 04:20:45;;;;;;;6.45;5.90;;;;;;;6.33;73.11;97666.22;4094314;28;20278;-57
2022/04/25 04:22:47;;;;;;;7.18;6.57;;;;;;;6.30;73.23;97669.44;4090321;29;20294;-56
2022/04/25 04:24:49;;;;;;;6.30;5.80;;;;;;;6.32;72.83;97683.59;4094530;29;20211;-58
2022/04/25 04:26:51;;;;;;;7.47;6.78;;;;;;;6.35;73.17;97688.56;4089809;29;20228;-58
2022/04/25 04:28:53;;;;;;;6.28;5.85;;;;;;;6.36;73.31;97695.63;4089329;28;20258;-56
2022/04/25 04:30:54;;;;;;;5.85;5.45;;;;;;;6.41;72.74;97703.84;4087655;29;20235;-57
2022/04/25 04:32:56;;;;;;;6.30;5.82;;;;;;;6.40;72.57;97707.66;4085897;29;20204;-57
2022/04/25 04:34:59;;;;;;;6.10;5.60;;;;;;;6.40;72.64;97708.47;4088342;28;20299;-57
2022/04/25 04:37:02;;;;;;;6.47;5.85;;;;;;;6.35;72.79;97705.66;4119507;28;20202;-58
2022/04/25 04:39:04;;;;;;;7.03;6.43;;;;;;;6.32;72.50;97716.19;4119946;28;20301;-58
2022/04/25 04:41:06;;;;;;;5.85;5.45;;;;;;;6.29;72.89;97700.41;4092576;29;20621;-56
2022/04/25 04:43:07;;;;;;;7.18;6.57;;;;;;;6.22;72.71;97705.97;4102217;28;20297;-56
2022/04/25 04:45:11;;;;;;;7.70;7.00;;;;;;;6.22;72.46;97705.16;4092129;29;20250;-57
2022/04/25 04:47:15;;;;;;;5.53;5.13;;;;;;;6.25;72.78;97710.09;4090949;28;20215;-57
2022/04/25 04:49:17;;;;;;;6.22;5.75;;;;;;;6.29;73.07;97711.25;4094428;29;20210;-56
2022/04/25 04:51:18;;;;;;;6.13;5.55;;;;;;;6.28;72.35;97709.63;4086255;29;20308;-56
2022/04/25 04:53:20;;;;;;;5.63;5.13;;;;;;;6.30;72.86;97723.78;4119238;28;20218;-56
2022/04/25 04:55:22;;;;;;;5.45;5.05;;;;;;;6.29;72.50;97727.56;4089710;29;20231;-57
2022/04/25 04:57:23;;;;;;;6.63;6.07;;;;;;;6.30;72.51;97724.56;4087451;29;20212;-55
2022/04/25 04:59:25;;;;;;;5.75;5.35;;;;;;;6.35;72.48;97726.59;4118984;28;20206;-56
2022/04/25 05:01:28;;;;;;;6.10;5.57;;;;;;;6.31;72.90;97728.97;4101591;28;20716;-55
2022/04/25 05:03:31;;;;;;;6.53;5.97;;;;;;;6.24;73.27;97724.72;4084839;28;20658;-57
2022/04/25 05:05:33;;;;;;;6.55;5.95;;;;;;;6.29;73.21;97733.00;4085659;29;20266;-58
2022/04/25 05:07:35;;;;;;;7.38;6.47;;;;;;;6.31;73.13;97737.13;4085776;29;20224;-57
2022/04/25 05:09:37;;;;;;;7.38;6.72;;;;;;;6.26;73.53;97749.75;4118763;28;20267;-58
2022/04/25 05:11:39;;;;;;;6.82;6.28;;;;;;;6.29;73.94;97738.44;4086525;28;20704;-58
2022/04/25 05:13:40;;;;;;;7.38;6.78;;;;;;;6.31;73.46;97739.00;4089713;28;20215;-57
2022/04/25 05:15:42;;;;;;;6.88;5.90;;;;;;;6.36;73.85;97739.91;4092706;29;20227;-57
2022/04/25 05:17:48;;;;;;;6.97;6.32;;;;;;;6.42;73.23;97738.13;4103146;28;20209;-58
2022/04/25 05:19:50;;;;;;;7.18;4.45;;;;;;;6.45;73.17;97748.50;4087118;29;20666;-57
2022/04/25 05:21:51;;;;;;;6.95;6.15;;;;;;;6.49;73.42;97744.25;4097829;28;20199;-58
2022/04/25 05:23:53;;;;;;;6.72;6.20;;;;;;;6.51;73.34;97752.97;4100854;28;20259;-57
2022/04/25 05:25:55;;;;;;;6.22;5.78;;;;;;;6.56;73.78;97744.91;4091215;29;20262;-56
2022/04/25 05:27:56;;;;;;;6.20;5.70;;;;;;;6.59;73.15;97747.97;4087983;29;20212;-57
2022/04/25 05:29:58;;;;;;;6.55;6.03;;;;;;;6.45;74.71;97743.06;4117517;28;20815;-56
2022/04/25 05:32:00;;;;;;;6.82;6.20;;;;;;;6.31;74.89;97741.72;4086865;28;20207;-57
2022/04/25 05:34:15;;;;;;;7.68;7.03;;;;;;;6.35;74.75;97745.59;4103132;28;20284;-56
2022/04/25 05:36:16;;;;;;;6.45;5.95;;;;;;;6.19;76.18;97743.63;4093233;29;20238;-58
2022/04/25 05:38:18;;;;;;;7.68;6.80;;;;;;;6.13;76.50;97744.59;4120799;28;20292;-57
2022/04/25 05:40:21;;;;;;;8.65;7.88;;;;;;;6.28;76.03;97753.88;4094884;29;20207;-56
2022/04/25 05:42:22;;;;;;;7.88;7.00;;;;;;;6.21;76.12;97742.34;4103278;28;20215;-56
2022/04/25 05:44:24;;;;;;;8.90;7.47;;;;;;;6.16;76.49;97755.81;4106191;28;20219;-57
2022/04/25 05:46:26;;;;;;;6.72;6.13;;;;;;;6.27;76.03;97751.41;4096470;29;20227;-56
2022/04/25 05:53:09;;;;;;;9.40;8.60;;;;;;;6.65;75.07;97760.59;4089878;28;20210;-56
2022/04/25 05:55:11;;;;;;;7.95;7.25;;;;;;;6.74;74.95;97769.16;4106559;28;20210;-57
2022/04/25 05:57:13;;;;;;;10.07;9.20;;;;;;;6.88;74.52;97776.78;4090039;29;20208;-56
2022/04/25 05:59:14;;;;;;;7.63;6.93;;;;;;;6.96;74.22;97781.00;4091161;29;20280;-58
2022/04/25 06:01:19;;;;;;;7.85;7.15;;;;;;;6.93;73.83;97781.47;4088060;28;20204;-58
2022/04/25 06:03:21;;;;;;;7.80;7.20;;;;;;;6.96;74.17;97778.28;4105145;28;20210;-56
2022/04/25 06:05:23;;;;;;;6.68;6.07;;;;;;;6.85;75.00;97777.28;4089698;28;20293;-55
2022/04/25 06:07:25;;;;;;;6.95;6.38;;;;;;;6.84;75.01;97780.22;4121056;28;20210;-56
2022/04/25 06:09:27;;;;;;;7.30;6.65;;;;;;;6.93;74.56;97779.59;4086587;29;20227;-57
2022/04/25 06:11:30;;;;;;;7.05;6.45;;;;;;;6.97;74.94;97785.38;4087405;29;20204;-57
2022/04/25 06:13:31;;;;;;;8.07;7.50;;;;;;;7.03;75.34;97778.94;4087381;29;20298;-56
2022/04/25 06:15:33;;;;;;;8.13;7.43;;;;;;;7.06;74.97;97783.88;4098380;28;20611;-58
2022/04/25 06:17:38;;;;;;;8.57;7.85;;;;;;;7.20;74.59;97782.50;4086944;28;20682;-56
2022/04/25 06:19:40;;;;;;;7.55;6.85;;;;;;;7.36;74.73;97789.84;4088961;29;20784;-56
2022/04/25 06:21:42;;;;;;;6.78;6.18;;;;;;;7.56;75.16;97790.16;4086533;28;20290;-56
2022/04/25 06:23:43;;;;;;;7.20;6.60;;;;;;;7.71;74.73;97798.56;4100035;28;21103;-56
2022/04/25 06:25:45;;;;;;;7.88;7.07;;;;;;;7.91;74.18;97794.25;4099151;28;20791;-56
2022/04/25 06:27:47;;;;;;;8.27;7.03;;;;;;;8.12;74.26;97795.34;4088235;29;20216;-56
2022/04/25 06:29:49;;;;;;;8.80;7.93;;;;;;;8.24;73.41;97793.34;4084803;28;20215;-58
2022/04/25 06:31:50;;;;;;;8.07;7.47;;;;;;;8.29;73.31;97796.16;4084799;28;20871;-55
2022/04/25 06:33:52;;;;;;;7.50;6.85;;;;;;;8.32;73.00;97791.03;4083530;28;20244;-55
2022/04/25 06:35:54;;;;;;;8.35;7.70;;;;;;;8.31;72.96;97796.72;4101149;28;20233;-56
2022/04/25 06:37:56;;;;;;;8.90;8.10;;;;;;;8.27;72.49;97803.75;4120732;28;20214;-56
2022/04/25 06:39:58;;;;;;;7.93;7.18;;;;;;;8.38;72.53;97802.81;4087360;28;20235;-58
2022/04/25 06:42:00;;;;;;;8.65;7.82;;;;;;;8.42;73.10;97801.22;4090686;29;20203;-56
2022/04/25 06:44:02;;;;;;;8.50;7.82;;;;;;;8.53;72.90;97794.81;4088813;28;20213;-58
2022/04/25 06:46:05;;;;;;;7.18;6.57;;;;;;;8.78;72.87;97785.03;4086616;29;20227;-57
2022/04/25 06:48:09;;;;;;;7.90;7.22;;;;;;;9.20;73.50;97791.44;4090267;28;20240;-57
2022/04/25 06:50:12;;;;;;;7.40;6.70;;;;;;;9.55;71.96;97799.13;4091106;28;20255;-56
2022/04/25 06:52:13;;;;;;;8.07;7.28;;;;;;;9.64;71.25;97805.75;4096264;29;20263;-56
2022/04/25 06:54:15;;;;;;;7.80;7.20;;;;;;;9.71;70.96;97806.34;4106392;28;20265;-56
2022/04/25 06:56:17;;;;;;;9.68;8.65;;;;;;;9.53;71.02;97812.19;4086979;29;20223;-56
2022/04/25 06:58:18;;;;;;;8.50;7.20;;;;;;;9.69;70.71;97817.53;4108130;28;20211;-55
2022/04/25 07:00:22;;;;;;;7.10;6.57;;;;;;;9.69;70.16;97819.44;4089510;29;20223;-57
2022/04/25 07:02:39;;;;;;;7.20;6.60;;;;;;;9.69;69.99;97824.91;4102274;28;20224;-55
2022/04/25 07:04:42;;;;;;;6.97;6.43;;;;;;;9.62;70.39;97825.13;4088332;28;20215;-55
2022/04/25 07:06:45;;;;;;;7.28;6.65;;;;;;;9.68;69.83;97824.06;4116952;28;20231;-55
2022/04/25 07:08:52;;;;;;;8.68;7.97;;;;;;;9.75;69.87;97832.88;4088835;28;20289;-54
2022/04/25 07:10:53;;;;;;;9.43;6.47;;;;;;;9.73;70.42;97831.47;4091741;28;20252;-55
2022/04/25 07:12:56;;;;;;;7.55;6.80;;;;;;;9.71;70.74;97839.97;4118845;28;20217;-55
2022/04/25 07:14:59;;;;;;;9.15;8.45;;;;;;;9.82;70.49;97838.13;4102011;28;21493;-57
2022/04/25 07:17:03;;;;;;;7.30;6.68;;;;;;;9.78;70.82;97845.19;4103319;28;20624;-57
2022/04/25 07:19:06;;;;;;;7.03;6.32;;;;;;;9.72;70.71;97835.31;4090526;29;20291;-57
2022/04/25 07:30:36;;;;;;;9.18;8.35;;;;;;;10.68;69.45;97823.91;4088330;28;20306;-54
2022/04/25 07:32:40;;;;;;;8.38;7.68;;;;;;;10.79;68.65;97820.94;4090890;29;20211;-55
2022/04/25 07:34:43;;;;;;;7.07;6.47;;;;;;;10.50;68.54;97822.47;4102658;28;20307;-54
2022/04/25 07:36:51;;;;;;;7.45;6.85;;;;;;;11.01;69.11;97808.69;4100455;28;20237;-55
2022/04/25 07:38:54;;;;;;;7.60;6.85;;;;;;;11.68;67.92;97814.84;4088815;29;20229;-55
2022/04/25 07:40:56;;;;;;;7.78;7.15;;;;;;;11.90;67.51;97812.63;4087763;29;20843;-56
2022/04/25 07:42:58;;;;;;;7.15;6.55;;;;;;;11.74;66.75;97819.22;4077901;29;20299;-54
2022/04/25 07:45:01;;;;;;;8.30;7.60;;;;;;;12.22;66.68;97818.59;4101726;28;20620;-57
2022/04/25 07:47:05;;;;;;;6.65;6.07;;;;;;;12.66;64.74;97816.84;4117872;28;20648;-55
2022/04/25 07:49:10;;;;;;;7.72;7.03;;;;;;;12.99;64.18;97815.34;4087435;28;20255;-53
2022/04/25 07:51:11;;;;;;;6.40;5.88;;;;;;;13.22;63.11;97815.47;4093745;29;20227;-55
2022/04/25 07:53:13;;;;;;;5.65;5.25;;;;;;;13.62;62.12;97817.97;4102054;28;20277;-54
2022/04/25 07:55:16;;;;;;;7.28;6.72;;;;;;;13.66;61.59;97804.47;4120265;28;20720;-56
2022/04/25 07:57:18;;;;;;;7.07;6.43;;;;;;;14.07;61.50;97808.50;4085990;29;20208;-55
2022/04/25 07:59:20;;;;;;;5.97;5.55;;;;;;;14.30;59.85;97805.81;4086957;28;20208;-54
2022/04/25 08:01:22;;;;;;;6.60;6.05;;;;;;;14.48;59.81;97813.34;4085970;29;20207;-56
2022/04/25 08:03:24;;;;;;;5.70;5.18;;;;;;;14.78;58.87;97813.00;4099749;28;20301;-55
2022/04/25 08:05:26;;;;;;;7.13;6.53;;;;;;;15.32;57.58;97816.16;4109597;28;20233;-54
2022/04/25 08:07:29;;;;;;;6.63;6.07;;;;;;;15.35;57.04;97815.56;4085765;29;20208;-55
2022/04/25 08:09:34;;;;;;;6.55;5.75;;;;;;;15.80;56.74;97817.63;4086033;29;20263;-54
2022/04/25 08:11:36;;;;;;;5.05;4.63;;;;;;;15.65;55.80;97823.38;4091176;28;20806;-56
2022/04/25 08:18:21;;;;;;;6.35;5.75;;;;;;;14.26;58.01;97826.78;4086138;29;20237;-56
2022/04/25 08:20:23;;;;;;;6.05;5.55;;;;;;;14.33;57.59;97826.44;4088342;29;20231;-55
2022/04/25 08:22:28;;;;;;;7.53;5.03;;;;;;;14.12;58.09;97831.31;4103258;28;20289;-54
2022/04/25 08:24:36;;;;;;;6.20;5.60;;;;;;;13.86;57.76;97827.13;4085989;29;20218;-54
2022/04/25 08:26:38;;;;;;;4.57;4.18;;;;;;;13.98;58.00;97833.06;4109839;28;20267;-53
2022/04/25 08:28:41;;;;;;;4.95;4.53;;;;;;;13.94;58.25;97829.25;4094222;29;20212;-54
2022/04/25 08:31:04;;;;;;;4.88;4.38;;;;;;;13.55;58.06;97831.22;4090245;29;20223;-54
2022/04/25 08:33:08;;;;;;;4.30;3.90;;;;;;;13.38;58.71;97836.25;4099252;28;20689;-54
2022/04/25 08:35:09;;;;;;;4.30;3.78;;;;;;;13.31;58.75;97835.75;4098908;28;20233;-54
2022/04/25 08:37:11;;;;;;;4.78;4.30;;;;;;;13.14;59.16;97845.47;4086626;29;20212;-53
2022/04/25 08:39:13;;;;;;;3.70;3.40;;;;;;;13.43;58.56;97838.19;4085186;29;20270;-53
2022/04/25 08:41:19;;;;;;;5.28;4.72;;;;;;;13.02;59.39;97843.06;4087191;29;20696;-53
2022/04/25 08:43:23;;;;;;;5.10;4.70;;;;;;;13.33;58.46;97832.72;4103410;28;20888;-54
2022/04/25 08:45:26;;;;;;;4.63;4.22;;;;;;;13.29;58.69;97840.72;4090726;29;20236;-53
2022/04/25 08:47:30;;;;;;;5.15;4.75;;;;;;;13.53;58.97;97838.94;4084933;28;20709;-53
2022/04/25 08:49:32;;;;;;;4.90;4.35;;;;;;;13.33;58.72;97839.06;4100693;28;20213;-54
2022/04/25 08:51:38;;;;;;;5.63;5.13;;;;;;;13.55;58.05;97844.97;4084479;29;20254;-54
2022/04/25 08:53:40;;;;;;;4.60;4.20;;;;;;;13.13;59.61;97854.81;4096305;28;20238;-53
2022/04/25 08:55:42;;;;;;;5.65;5.05;;;;;;;13.32;60.13;97859.41;4116869;28;20261;-53
2022/04/25 08:57:45;;;;;;;7.65;5.65;;;;;;;13.11;59.55;97855.09;4086691;29;20215;-53
2022/04/25 08:59:50;;;;;;;5.93;5.32;;;;;;;13.14;59.37;97851.81;4083815;29;20222;-53
2022/04/25 09:01:53;;;;;;;4.82;4.50;;;;;;;13.32;59.12;97842.91;4105883;28;20218;-53
2022/04/25 09:03:55;;;;;;;4.82;4.43;;;;;;;13.33;59.34;97847.31;4114577;28;20221;-53
2022/04/25 09:05:58;;;;;;;4.40;4.10;;;;;;;13.69;58.21;97836.91;4091255;28;20231;-54
2022/04/25 09:08:00;;;;;;;4.43;4.07;;;;;;;13.90;57.28;97844.69;4086221;28;20298;-53
2022/04/25 09:10:02;;;;;;;5.93;5.43;;;;;;;14.24;56.17;97845.50;4092199;28;20215;-53
2022/04/25 09:12:10;;;;;;;5.40;4.15;;;;;;;14.57;56.28;97844.63;4091390;29;20231;-53
2022/04/25 09:14:14;;;;;;;5.07;4.57;;;;;;;15.11;55.93;97850.56;4090558;29;21217;-53
2022/04/25 09:16:16;;;;;;;4.55;4.15;;;;;;;16.05;56.52;97850.34;4086575;29;20297;-53
2022/04/25 09:18:19;;;;;;;4.63;4.32;;;;;;;15.90;54.30;97864.34;4090466;29;20242;-53
2022/04/25 09:20:22;;;;;;;4.68;4.28;;;;;;;14.87;54.93;97846.19;4090471;29;20602;-53
2022/04/25 09:22:32;;;;;;;3.38;3.08;;;;;;;14.81;54.57;97850.97;4118347;28;20221;-54
2022/04/25 09:24:45;;;;;;;5.78;5.38;;;;;;;14.06;55.90;97853.63;4090373;29;20694;-54
2022/04/25 09:26:52;;;;;;;4.70;4.38;;;;;;;14.74;55.72;97850.50;4090196;29;20277;-53
2022/04/25 09:28:57;;;;;;;9.95;4.03;;;;;;;14.62;56.54;97857.53;4086317;28;20237;-54
2022/04/25 09:31:01;;;;;;;4.68;3.95;;;;;;;14.63;55.43;97853.66;4120292;28;20723;-55
2022/04/25 09:33:14;;;;;;;3.85;3.55;;;;;;;14.06;55.81;97857.22;4118184;28;20281;-54
2022/04/25 09:35:37;;;;;;;4.20;3.80;;;;;;;14.08;56.97;97848.66;4075221;29;20271;-54
2022/04/25 09:37:47;;;;;;;3.90;3.60;;;;;;;13.81;57.04;97851.91;4088806;29;20208;-54
2022/04/25 09:39:48;;;;;;;4.35;3.92;;;;;;;13.53;57.52;97860.09;4101637;28;20270;-54
2022/04/25 09:41:50;;;;;;;3.90;3.47;;;;;;;13.35;57.62;97850.56;4119303;28;20209;-54
2022/04/25 09:43:58;;;;;;;3.67;3.38;;;;;;;13.54;58.55;97851.56;4088748;29;20208;-53
2022/04/25 09:46:10;;;;;;;4.88;4.47;;;;;;;13.34;59.46;97851.69;4121505;28;20229;-53
2022/04/25 09:48:16;;;;;;;4.57;4.18;;;;;;;13.39;59.36;97843.41;4094178;29;20306;-53
2022/04/25 09:50:18;;;;;;;4.32;3.92;;;;;;;13.41;59.63;97846.69;4086775;28;20214;-53
2022/04/25 09:52:57;;;;;;;4.05;3.67;;;;;;;13.48;59.38;97858.19;4092541;29;20239;-53
2022/04/25 09:55:19;;;;;;;4.63;4.25;;;;;;;13.29;60.28;97862.69;4105291;28;20646;-53
2022/04/25 09:57:29;;;;;;;3.58;3.28;;;;;;;13.31;61.55;97873.41;4089455;29;20298;-54
2022/04/25 09:59:43;;;;;;;5.70;5.20;;;;;;;13.16;63.17;97877.06;4100095;28;20210;-53
2022/04/25 10:01:45;;;;;;;5.80;5.10;;;;;;;13.02;63.75;97876.03;4087465;28;20618;-54
2022/04/25 10:03:48;;;;;;;4.60;4.25;;;;;;;12.61;64.74;97885.47;4085841;28;20267;-54
2022/04/25 10:05:52;;;;;;;6.20;4.93;;;;;;;12.60;65.04;97883.84;4118397;28;20238;-54
2022/04/25 10:07:55;;;;;;;4.10;3.70;;;;;;;12.46;65.28;97893.75;4090168;28;21229;-53